sensor_id;sensor_type;location;lat;lon;timestamp;temperature;humidity
27759;DHT22;15148;48.972;12.794;2023-09-07T00:03:28;15.50;99.90
27759;DHT22;15148;48.972;12.794;2023-09-07T00:08:30;15.50;99.90
27759;DHT22;15148;48.972;12.794;2023-09-07T00:13:34;15.40;99.90
27759;DHT22;15148;48.972;12.794;2023-09-07T00:18:36;15.40;99.90
27759;DHT22;15148;48.972;12.794;2023-09-07T00:23:39;15.50;99.90
27759;DHT22;15148;48.972;12.794;2023-09-07T00:28:41;15.40;99.90
27759;DHT22;15148;48.972;12.794;2023-09-07T00:33:43;15.40;99.90
27759;DHT22;15148;48.972;12.794;2023-09-07T00:38:45;15.30;99.90
27759;DHT22;15148;48.972;12.794;2023-09-07T00:43:47;15.40;99.90
27759;DHT22;15148;48.972;12.794;2023-09-07T00:48:49;15.20;99.90
27759;DHT22;15148;48.972;12.794;2023-09-07T00:53:52;15.00;99.90
27759;DHT22;15148;48.972;12.794;2023-09-07T00:58:55;14.90;99.90
27759;DHT22;15148;48.972;12.794;2023-09-07T01:03:58;14.70;99.90
27759;DHT22;15148;48.972;12.794;2023-09-07T01:09:14;14.70;99.90
27759;DHT22;15148;48.972;12.794;2023-09-07T01:14:17;14.50;99.90
27759;DHT22;15148;48.972;12.794;2023-09-07T01:19:19;14.40;99.90
27759;DHT22;15148;48.972;12.794;2023-09-07T01:24:22;14.30;99.90
27759;DHT22;15148;48.972;12.794;2023-09-07T01:29:25;14.20;99.90
27759;DHT22;15148;48.972;12.794;2023-09-07T01:34:30;14.10;99.90
27759;DHT22;15148;48.972;12.794;2023-09-07T01:39:32;14.00;99.90
27759;DHT22;15148;48.972;12.794;2023-09-07T01:44:34;13.90;99.90
27759;DHT22;15148;48.972;12.794;2023-09-07T01:49:37;13.80;99.90
27759;DHT22;15148;48.972;12.794;2023-09-07T01:54:39;13.70;99.90
27759;DHT22;15148;48.972;12.794;2023-09-07T01:59:41;13.70;99.90
27759;DHT22;15148;48.972;12.794;2023-09-07T02:04:43;13.60;99.90
27759;DHT22;15148;48.972;12.794;2023-09-07T02:09:47;13.50;99.90
27759;DHT22;15148;48.972;12.794;2023-09-07T02:14:49;13.40;99.90
27759;DHT22;15148;48.972;12.794;2023-09-07T02:19:51;13.40;99.90
27759;DHT22;15148;48.972;12.794;2023-09-07T02:24:53;13.30;99.90
27759;DHT22;15148;48.972;12.794;2023-09-07T02:29:55;13.20;99.90
27759;DHT22;15148;48.972;12.794;2023-09-07T02:34:57;13.20;99.90
27759;DHT22;15148;48.972;12.794;2023-09-07T02:39:59;13.10;99.90
27759;DHT22;15148;48.972;12.794;2023-09-07T02:45:02;13.00;99.90
27759;DHT22;15148;48.972;12.794;2023-09-07T02:50:04;13.10;99.90
27759;DHT22;15148;48.972;12.794;2023-09-07T02:55:07;13.10;99.90
27759;DHT22;15148;48.972;12.794;2023-09-07T03:00:10;13.10;99.90
27759;DHT22;15148;48.972;12.794;2023-09-07T03:05:13;13.00;99.90
27759;DHT22;15148;48.972;12.794;2023-09-07T03:10:16;13.00;99.90
27759;DHT22;15148;48.972;12.794;2023-09-07T03:15:19;13.00;99.90
27759;DHT22;15148;48.972;12.794;2023-09-07T03:20:21;12.90;99.90
27759;DHT22;15148;48.972;12.794;2023-09-07T03:25:25;12.80;99.90
27759;DHT22;15148;48.972;12.794;2023-09-07T03:30:27;12.70;99.90
27759;DHT22;15148;48.972;12.794;2023-09-07T03:35:29;12.70;99.90
27759;DHT22;15148;48.972;12.794;2023-09-07T03:40:31;12.70;99.90
27759;DHT22;15148;48.972;12.794;2023-09-07T03:45:33;12.70;99.90
27759;DHT22;15148;48.972;12.794;2023-09-07T03:50:35;12.60;99.90
27759;DHT22;15148;48.972;12.794;2023-09-07T03:55:42;12.50;99.90
27759;DHT22;15148;48.972;12.794;2023-09-07T04:00:45;12.50;99.90
27759;DHT22;15148;48.972;12.794;2023-09-07T04:05:47;12.40;99.90
27759;DHT22;15148;48.972;12.794;2023-09-07T04:10:49;12.30;99.90
27759;DHT22;15148;48.972;12.794;2023-09-07T04:15:50;12.30;99.90
27759;DHT22;15148;48.972;12.794;2023-09-07T04:20:52;12.30;99.90
27759;DHT22;15148;48.972;12.794;2023-09-07T04:26:10;12.10;99.90
27759;DHT22;15148;48.972;12.794;2023-09-07T04:31:12;12.10;99.90
27759;DHT22;15148;48.972;12.794;2023-09-07T04:36:14;12.10;99.90
27759;DHT22;15148;48.972;12.794;2023-09-07T04:41:20;12.00;99.90
27759;DHT22;15148;48.972;12.794;2023-09-07T04:46:22;12.00;99.90
27759;DHT22;15148;48.972;12.794;2023-09-07T04:51:25;11.90;99.90
27759;DHT22;15148;48.972;12.794;2023-09-07T04:56:28;11.80;99.90
27759;DHT22;15148;48.972;12.794;2023-09-07T05:01:31;11.80;99.90
27759;DHT22;15148;48.972;12.794;2023-09-07T05:06:34;11.70;99.90
27759;DHT22;15148;48.972;12.794;2023-09-07T05:11:40;11.70;99.90
27759;DHT22;15148;48.972;12.794;2023-09-07T05:16:43;11.80;99.90
27759;DHT22;15148;48.972;12.794;2023-09-07T05:21:46;11.80;99.90
27759;DHT22;15148;48.972;12.794;2023-09-07T05:26:49;11.70;99.90
27759;DHT22;15148;48.972;12.794;2023-09-07T05:31:52;11.80;99.90
27759;DHT22;15148;48.972;12.794;2023-09-07T05:36:55;11.80;99.90
27759;DHT22;15148;48.972;12.794;2023-09-07T05:41:57;11.80;99.90
27759;DHT22;15148;48.972;12.794;2023-09-07T05:46:59;11.90;99.90
27759;DHT22;15148;48.972;12.794;2023-09-07T05:52:02;12.00;99.90
27759;DHT22;15148;48.972;12.794;2023-09-07T05:57:04;12.20;99.90
27759;DHT22;15148;48.972;12.794;2023-09-07T06:02:06;12.30;99.90
27759;DHT22;15148;48.972;12.794;2023-09-07T06:07:08;12.50;99.90
27759;DHT22;15148;48.972;12.794;2023-09-07T06:12:10;12.70;99.90
27759;DHT22;15148;48.972;12.794;2023-09-07T06:17:12;12.90;99.90
27759;DHT22;15148;48.972;12.794;2023-09-07T06:22:15;13.20;99.90
27759;DHT22;15148;48.972;12.794;2023-09-07T06:27:17;13.50;99.90
27759;DHT22;15148;48.972;12.794;2023-09-07T06:32:19;13.80;99.90
27759;DHT22;15148;48.972;12.794;2023-09-07T06:37:21;14.10;99.90
27759;DHT22;15148;48.972;12.794;2023-09-07T06:42:23;14.40;99.90
27759;DHT22;15148;48.972;12.794;2023-09-07T06:47:34;14.80;99.90
27759;DHT22;15148;48.972;12.794;2023-09-07T06:52:37;15.20;99.90
27759;DHT22;15148;48.972;12.794;2023-09-07T06:57:40;15.60;99.90
27759;DHT22;15148;48.972;12.794;2023-09-07T07:02:41;15.90;99.90
27759;DHT22;15148;48.972;12.794;2023-09-07T07:07:45;16.40;99.90
27759;DHT22;15148;48.972;12.794;2023-09-07T07:12:47;16.80;99.90
27759;DHT22;15148;48.972;12.794;2023-09-07T07:17:49;17.20;99.90
27759;DHT22;15148;48.972;12.794;2023-09-07T07:22:51;17.50;99.90
27759;DHT22;15148;48.972;12.794;2023-09-07T07:27:53;18.00;99.90
27759;DHT22;15148;48.972;12.794;2023-09-07T07:32:56;18.40;99.90
27759;DHT22;15148;48.972;12.794;2023-09-07T07:37:58;18.80;99.90
27759;DHT22;15148;48.972;12.794;2023-09-07T07:43:00;19.20;99.90
27759;DHT22;15148;48.972;12.794;2023-09-07T07:48:03;19.60;99.90
27759;DHT22;15148;48.972;12.794;2023-09-07T07:53:07;19.90;99.90
27759;DHT22;15148;48.972;12.794;2023-09-07T07:58:10;20.20;99.90
27759;DHT22;15148;48.972;12.794;2023-09-07T08:03:15;20.50;99.90
27759;DHT22;15148;48.972;12.794;2023-09-07T08:08:17;20.80;99.90
27759;DHT22;15148;48.972;12.794;2023-09-07T08:13:19;21.10;99.90
27759;DHT22;15148;48.972;12.794;2023-09-07T08:18:22;21.50;99.90
27759;DHT22;15148;48.972;12.794;2023-09-07T08:23:25;21.80;99.90
27759;DHT22;15148;48.972;12.794;2023-09-07T08:28:28;22.10;99.90
27759;DHT22;15148;48.972;12.794;2023-09-07T08:33:32;22.40;99.90
27759;DHT22;15148;48.972;12.794;2023-09-07T08:38:35;22.60;99.90
27759;DHT22;15148;48.972;12.794;2023-09-07T08:43:45;22.90;99.90
27759;DHT22;15148;48.972;12.794;2023-09-07T08:48:51;23.10;99.90
27759;DHT22;15148;48.972;12.794;2023-09-07T08:53:53;23.40;99.90
27759;DHT22;15148;48.972;12.794;2023-09-07T08:58:55;23.70;99.90
27759;DHT22;15148;48.972;12.794;2023-09-07T09:03:57;23.80;99.90
27759;DHT22;15148;48.972;12.794;2023-09-07T09:09:00;24.00;99.90
27759;DHT22;15148;48.972;12.794;2023-09-07T09:14:05;24.10;99.90
27759;DHT22;15148;48.972;12.794;2023-09-07T09:19:08;24.10;99.90
27759;DHT22;15148;48.972;12.794;2023-09-07T09:24:11;24.30;99.90
27759;DHT22;15148;48.972;12.794;2023-09-07T09:29:13;24.40;99.90
27759;DHT22;15148;48.972;12.794;2023-09-07T09:34:18;24.60;99.90
27759;DHT22;15148;48.972;12.794;2023-09-07T09:39:24;24.50;99.90
27759;DHT22;15148;48.972;12.794;2023-09-07T09:44:28;24.50;99.90
27759;DHT22;15148;48.972;12.794;2023-09-07T09:49:31;24.50;99.90
27759;DHT22;15148;48.972;12.794;2023-09-07T09:54:36;24.60;99.90
27759;DHT22;15148;48.972;12.794;2023-09-07T09:59:38;24.70;99.90
27759;DHT22;15148;48.972;12.794;2023-09-07T10:04:41;24.70;99.90
27759;DHT22;15148;48.972;12.794;2023-09-07T10:09:43;24.90;99.90
27759;DHT22;15148;48.972;12.794;2023-09-07T10:14:45;25.00;99.90
27759;DHT22;15148;48.972;12.794;2023-09-07T10:20:02;25.00;99.90
27759;DHT22;15148;48.972;12.794;2023-09-07T10:25:21;25.10;99.90
27759;DHT22;15148;48.972;12.794;2023-09-07T10:30:23;25.10;99.90
27759;DHT22;15148;48.972;12.794;2023-09-07T10:35:26;25.10;99.90
27759;DHT22;15148;48.972;12.794;2023-09-07T10:40:30;25.10;99.90
27759;DHT22;15148;48.972;12.794;2023-09-07T10:45:32;25.30;99.90
27759;DHT22;15148;48.972;12.794;2023-09-07T10:50:44;25.30;99.90
27759;DHT22;15148;48.972;12.794;2023-09-07T10:55:46;25.30;99.90
27759;DHT22;15148;48.972;12.794;2023-09-07T11:00:48;25.30;99.90
27759;DHT22;15148;48.972;12.794;2023-09-07T11:05:51;25.50;99.90
27759;DHT22;15148;48.972;12.794;2023-09-07T11:10:55;25.70;99.90
27759;DHT22;15148;48.972;12.794;2023-09-07T11:15:58;25.70;99.90
27759;DHT22;15148;48.972;12.794;2023-09-07T11:21:00;25.70;99.90
27759;DHT22;15148;48.972;12.794;2023-09-07T11:26:05;25.80;99.90
27759;DHT22;15148;48.972;12.794;2023-09-07T11:31:08;25.80;99.90
27759;DHT22;15148;48.972;12.794;2023-09-07T11:36:10;26.10;99.90
27759;DHT22;15148;48.972;12.794;2023-09-07T11:41:13;26.00;99.90
27759;DHT22;15148;48.972;12.794;2023-09-07T11:46:15;26.30;99.90
27759;DHT22;15148;48.972;12.794;2023-09-07T11:51:17;26.40;99.90
27759;DHT22;15148;48.972;12.794;2023-09-07T11:56:19;26.30;99.90
27759;DHT22;15148;48.972;12.794;2023-09-07T12:01:21;26.30;99.90
27759;DHT22;15148;48.972;12.794;2023-09-07T12:06:24;26.20;99.90
27759;DHT22;15148;48.972;12.794;2023-09-07T12:11:26;26.30;99.90
27759;DHT22;15148;48.972;12.794;2023-09-07T12:16:28;26.30;99.90
27759;DHT22;15148;48.972;12.794;2023-09-07T12:21:30;26.30;99.90
27759;DHT22;15148;48.972;12.794;2023-09-07T12:26:31;26.50;99.90
27759;DHT22;15148;48.972;12.794;2023-09-07T12:31:33;26.70;99.90
27759;DHT22;15148;48.972;12.794;2023-09-07T12:36:35;27.00;99.90
27759;DHT22;15148;48.972;12.794;2023-09-07T12:41:37;27.00;99.90
27759;DHT22;15148;48.972;12.794;2023-09-07T12:46:39;27.20;99.90
27759;DHT22;15148;48.972;12.794;2023-09-07T12:51:41;27.30;99.90
27759;DHT22;15148;48.972;12.794;2023-09-07T12:56:43;27.30;99.90
27759;DHT22;15148;48.972;12.794;2023-09-07T13:01:46;27.30;99.90
27759;DHT22;15148;48.972;12.794;2023-09-07T13:06:50;27.40;99.90
27759;DHT22;15148;48.972;12.794;2023-09-07T13:11:52;27.60;99.90
27759;DHT22;15148;48.972;12.794;2023-09-07T13:16:54;27.50;99.90
27759;DHT22;15148;48.972;12.794;2023-09-07T13:21:57;27.60;99.90
27759;DHT22;15148;48.972;12.794;2023-09-07T13:26:58;27.50;99.90
27759;DHT22;15148;48.972;12.794;2023-09-07T13:32:00;27.50;99.90
27759;DHT22;15148;48.972;12.794;2023-09-07T13:37:02;27.60;99.90
27759;DHT22;15148;48.972;12.794;2023-09-07T13:42:04;27.50;99.90
27759;DHT22;15148;48.972;12.794;2023-09-07T13:47:06;27.30;99.90
27759;DHT22;15148;48.972;12.794;2023-09-07T13:52:10;27.30;99.90
27759;DHT22;15148;48.972;12.794;2023-09-07T13:57:12;27.30;99.90
27759;DHT22;15148;48.972;12.794;2023-09-07T14:02:14;27.30;99.90
27759;DHT22;15148;48.972;12.794;2023-09-07T14:07:16;27.10;99.90
27759;DHT22;15148;48.972;12.794;2023-09-07T14:12:17;26.90;99.90
27759;DHT22;15148;48.972;12.794;2023-09-07T14:17:19;26.70;99.90
27759;DHT22;15148;48.972;12.794;2023-09-07T14:22:21;26.30;99.90
27759;DHT22;15148;48.972;12.794;2023-09-07T14:27:23;25.90;99.90
27759;DHT22;15148;48.972;12.794;2023-09-07T14:32:27;25.70;99.90
27759;DHT22;15148;48.972;12.794;2023-09-07T14:37:29;25.50;99.90
27759;DHT22;15148;48.972;12.794;2023-09-07T14:42:31;25.20;99.90
27759;DHT22;15148;48.972;12.794;2023-09-07T14:47:33;25.00;99.90
27759;DHT22;15148;48.972;12.794;2023-09-07T14:52:35;24.90;99.90
27759;DHT22;15148;48.972;12.794;2023-09-07T14:57:42;24.60;99.90
27759;DHT22;15148;48.972;12.794;2023-09-07T15:02:46;24.40;99.90
27759;DHT22;15148;48.972;12.794;2023-09-07T15:07:48;24.30;99.90
27759;DHT22;15148;48.972;12.794;2023-09-07T15:12:50;24.10;99.90
27759;DHT22;15148;48.972;12.794;2023-09-07T15:17:51;24.00;99.90
27759;DHT22;15148;48.972;12.794;2023-09-07T15:22:53;23.90;99.90
27759;DHT22;15148;48.972;12.794;2023-09-07T15:27:56;23.70;99.90
27759;DHT22;15148;48.972;12.794;2023-09-07T15:32:58;23.60;99.90
27759;DHT22;15148;48.972;12.794;2023-09-07T15:38:00;23.60;99.90
27759;DHT22;15148;48.972;12.794;2023-09-07T15:43:02;23.40;99.90
27759;DHT22;15148;48.972;12.794;2023-09-07T15:48:04;23.30;99.90
27759;DHT22;15148;48.972;12.794;2023-09-07T15:53:07;23.30;99.90
27759;DHT22;15148;48.972;12.794;2023-09-07T15:58:09;23.20;99.90
27759;DHT22;15148;48.972;12.794;2023-09-07T16:03:11;23.10;99.90
27759;DHT22;15148;48.972;12.794;2023-09-07T16:08:13;23.00;99.90
27759;DHT22;15148;48.972;12.794;2023-09-07T16:13:15;22.80;99.90
27759;DHT22;15148;48.972;12.794;2023-09-07T16:18:17;22.70;99.90
27759;DHT22;15148;48.972;12.794;2023-09-07T16:23:21;22.50;99.90
27759;DHT22;15148;48.972;12.794;2023-09-07T16:28:25;22.30;99.90
27759;DHT22;15148;48.972;12.794;2023-09-07T16:33:26;22.20;99.90
27759;DHT22;15148;48.972;12.794;2023-09-07T16:38:28;22.00;99.90
27759;DHT22;15148;48.972;12.794;2023-09-07T16:43:31;21.80;99.90
27759;DHT22;15148;48.972;12.794;2023-09-07T16:48:33;21.70;99.90
27759;DHT22;15148;48.972;12.794;2023-09-07T16:53:36;21.60;99.90
27759;DHT22;15148;48.972;12.794;2023-09-07T16:58:41;21.40;99.90
27759;DHT22;15148;48.972;12.794;2023-09-07T17:04:04;21.20;99.90
27759;DHT22;15148;48.972;12.794;2023-09-07T17:09:07;21.20;99.90
27759;DHT22;15148;48.972;12.794;2023-09-07T17:14:09;21.00;99.90
27759;DHT22;15148;48.972;12.794;2023-09-07T17:19:11;20.90;99.90
27759;DHT22;15148;48.972;12.794;2023-09-07T17:24:13;20.70;99.90
27759;DHT22;15148;48.972;12.794;2023-09-07T17:29:15;20.60;99.90
27759;DHT22;15148;48.972;12.794;2023-09-07T17:34:17;20.60;99.90
27759;DHT22;15148;48.972;12.794;2023-09-07T17:39:19;20.60;99.90
27759;DHT22;15148;48.972;12.794;2023-09-07T17:44:21;20.40;99.90
27759;DHT22;15148;48.972;12.794;2023-09-07T17:49:23;20.30;99.90
27759;DHT22;15148;48.972;12.794;2023-09-07T17:54:25;20.20;99.90
27759;DHT22;15148;48.972;12.794;2023-09-07T17:59:27;20.30;99.90
27759;DHT22;15148;48.972;12.794;2023-09-07T18:04:29;20.40;99.90
27759;DHT22;15148;48.972;12.794;2023-09-07T18:09:31;20.40;99.90
27759;DHT22;15148;48.972;12.794;2023-09-07T18:14:33;20.40;99.90
27759;DHT22;15148;48.972;12.794;2023-09-07T18:19:35;20.50;99.90
27759;DHT22;15148;48.972;12.794;2023-09-07T18:24:37;20.60;99.90
27759;DHT22;15148;48.972;12.794;2023-09-07T18:29:39;20.60;99.90
27759;DHT22;15148;48.972;12.794;2023-09-07T18:34:41;20.60;99.90
27759;DHT22;15148;48.972;12.794;2023-09-07T18:39:43;20.50;99.90
27759;DHT22;15148;48.972;12.794;2023-09-07T18:44:45;20.40;99.90
27759;DHT22;15148;48.972;12.794;2023-09-07T18:49:48;20.10;99.90
27759;DHT22;15148;48.972;12.794;2023-09-07T18:54:50;19.80;99.90
27759;DHT22;15148;48.972;12.794;2023-09-07T18:59:52;19.60;99.90
27759;DHT22;15148;48.972;12.794;2023-09-07T19:04:54;19.50;99.90
27759;DHT22;15148;48.972;12.794;2023-09-07T19:09:56;19.30;99.90
27759;DHT22;15148;48.972;12.794;2023-09-07T19:14:57;19.10;99.90
27759;DHT22;15148;48.972;12.794;2023-09-07T19:20:00;18.90;99.90
27759;DHT22;15148;48.972;12.794;2023-09-07T19:25:02;18.70;99.90
27759;DHT22;15148;48.972;12.794;2023-09-07T19:30:06;18.70;99.90
27759;DHT22;15148;48.972;12.794;2023-09-07T19:35:09;18.60;99.90
27759;DHT22;15148;48.972;12.794;2023-09-07T19:40:11;18.60;99.90
27759;DHT22;15148;48.972;12.794;2023-09-07T19:45:14;18.50;99.90
27759;DHT22;15148;48.972;12.794;2023-09-07T19:50:16;18.40;99.90
27759;DHT22;15148;48.972;12.794;2023-09-07T19:55:18;18.40;99.90
27759;DHT22;15148;48.972;12.794;2023-09-07T20:00:22;18.60;99.90
27759;DHT22;15148;48.972;12.794;2023-09-07T20:05:24;18.80;99.90
27759;DHT22;15148;48.972;12.794;2023-09-07T20:10:26;18.70;99.90
27759;DHT22;15148;48.972;12.794;2023-09-07T20:15:28;18.60;99.90
27759;DHT22;15148;48.972;12.794;2023-09-07T20:20:30;18.50;99.90
27759;DHT22;15148;48.972;12.794;2023-09-07T20:25:32;18.60;99.90
27759;DHT22;15148;48.972;12.794;2023-09-07T20:30:34;18.80;99.90
27759;DHT22;15148;48.972;12.794;2023-09-07T20:35:36;19.00;99.90
27759;DHT22;15148;48.972;12.794;2023-09-07T20:40:38;19.10;99.90
27759;DHT22;15148;48.972;12.794;2023-09-07T20:45:40;19.30;99.90
27759;DHT22;15148;48.972;12.794;2023-09-07T20:50:43;19.60;99.90
27759;DHT22;15148;48.972;12.794;2023-09-07T20:55:47;19.70;99.90
27759;DHT22;15148;48.972;12.794;2023-09-07T21:00:50;19.60;99.90
27759;DHT22;15148;48.972;12.794;2023-09-07T21:05:51;19.40;99.90
27759;DHT22;15148;48.972;12.794;2023-09-07T21:10:54;19.20;99.90
27759;DHT22;15148;48.972;12.794;2023-09-07T21:15:56;19.10;99.90
27759;DHT22;15148;48.972;12.794;2023-09-07T21:20:58;18.90;99.90
27759;DHT22;15148;48.972;12.794;2023-09-07T21:26:00;18.50;99.90
27759;DHT22;15148;48.972;12.794;2023-09-07T21:31:02;18.30;99.90
27759;DHT22;15148;48.972;12.794;2023-09-07T21:36:04;18.50;99.90
27759;DHT22;15148;48.972;12.794;2023-09-07T21:41:06;18.40;99.90
27759;DHT22;15148;48.972;12.794;2023-09-07T21:46:08;18.10;99.90
27759;DHT22;15148;48.972;12.794;2023-09-07T21:51:10;17.90;99.90
27759;DHT22;15148;48.972;12.794;2023-09-07T21:56:12;17.80;99.90
27759;DHT22;15148;48.972;12.794;2023-09-07T22:01:14;17.50;99.90
27759;DHT22;15148;48.972;12.794;2023-09-07T22:06:16;17.20;99.90
27759;DHT22;15148;48.972;12.794;2023-09-07T22:11:18;17.00;99.90
27759;DHT22;15148;48.972;12.794;2023-09-07T22:16:20;16.80;99.90
27759;DHT22;15148;48.972;12.794;2023-09-07T22:21:22;16.50;99.90
27759;DHT22;15148;48.972;12.794;2023-09-07T22:26:26;16.50;99.90
27759;DHT22;15148;48.972;12.794;2023-09-07T22:31:28;16.50;99.90
27759;DHT22;15148;48.972;12.794;2023-09-07T22:36:30;16.50;99.90
27759;DHT22;15148;48.972;12.794;2023-09-07T22:41:31;16.40;99.90
27759;DHT22;15148;48.972;12.794;2023-09-07T22:46:33;16.20;99.90
27759;DHT22;15148;48.972;12.794;2023-09-07T22:51:36;16.00;99.90
27759;DHT22;15148;48.972;12.794;2023-09-07T22:56:38;15.90;99.90
27759;DHT22;15148;48.972;12.794;2023-09-07T23:01:40;15.90;99.90
27759;DHT22;15148;48.972;12.794;2023-09-07T23:06:42;15.90;99.90
27759;DHT22;15148;48.972;12.794;2023-09-07T23:11:44;15.90;99.90
27759;DHT22;15148;48.972;12.794;2023-09-07T23:16:46;15.80;99.90
27759;DHT22;15148;48.972;12.794;2023-09-07T23:21:48;15.70;99.90
27759;DHT22;15148;48.972;12.794;2023-09-07T23:26:50;15.50;99.90
27759;DHT22;15148;48.972;12.794;2023-09-07T23:31:54;15.40;99.90
27759;DHT22;15148;48.972;12.794;2023-09-07T23:36:57;15.30;99.90
27759;DHT22;15148;48.972;12.794;2023-09-07T23:41:59;15.30;99.90
27759;DHT22;15148;48.972;12.794;2023-09-07T23:47:01;15.20;99.90
27759;DHT22;15148;48.972;12.794;2023-09-07T23:52:03;15.10;99.90
27759;DHT22;15148;48.972;12.794;2023-09-07T23:57:05;14.90;99.90
